SEATTLE-TACOMA INTL

KSEA (SEA)
Seattle, Washington
Towered

Vatsim Metar:
KSEA 271653Z 00000KT 1/8SM R16L/0800V1400FT FZFG VV001 M01/M01 A3039 RMK AO2 SFC VIS 1/4 SLP303 T10061006

No ATC Online

Traffic

Inbound:
Ident
Type
Name
ETA
Phase
WWA829
DHC6
Terry Parthemore KSEA
Taxiing In
ASA1901
A320
Nash Francis KMCO
17:59 Z
Descent
QXE2285
DH8D
Cristian Avram CYYC
Boarding
ASA579
A20N
Matthew Kollar KPHX
18:41 Z
Cruse
WWA3241
B744
larry horton KDEN
19:07 Z
Cruse
NKS1450
A320
Jeromy Hunter KAMA
20:03 Z
Climb
AAL1481
MD83
Brent Conklin PANC
20:10 Z
Cruse
DAL1363
B739
John Postiglione KTPA
Boarding
DAL1358
B738
Marcosm Mota EDDF
Boarding
DAL656
B763
1293884 KPDK
21:21 Z
Cruse

Outbound:
None